createdAt,value
2019-06-01T00:00:56.160Z,4.53
2019-06-01T00:03:25.432Z,4.23
2019-06-01T00:05:54.710Z,5.10
2019-06-01T00:08:23.981Z,4.23
2019-06-01T00:10:53.257Z,4.00
2019-06-01T00:13:22.536Z,5.00
2019-06-01T00:15:51.808Z,4.23
2019-06-01T00:18:21.438Z,5.07
2019-06-01T00:20:50.953Z,4.60
2019-06-01T00:23:20.547Z,5.47
2019-06-01T00:25:49.826Z,5.60
2019-06-01T00:28:19.097Z,5.87
2019-06-01T00:30:49.863Z,5.10
2019-06-01T00:33:19.109Z,5.00
2019-06-01T00:35:49.486Z,5.50
2019-06-01T00:38:18.859Z,5.17
2019-06-01T00:40:48.150Z,5.13
2019-06-01T00:43:17.826Z,5.13
2019-06-01T00:45:48.571Z,5.30
2019-06-01T00:48:18.162Z,4.57
2019-06-01T00:50:49.040Z,5.03
2019-06-01T00:53:18.714Z,4.83
2019-06-01T00:55:47.984Z,4.53
2019-06-01T00:58:17.516Z,4.47
2019-06-01T01:00:47.812Z,4.27
2019-06-01T01:03:18.554Z,5.63
2019-06-01T01:05:48.714Z,5.00
2019-06-01T01:08:18.296Z,4.37
2019-06-01T01:10:48.996Z,5.10
2019-06-01T01:13:20.276Z,4.83
2019-06-01T01:15:49.888Z,4.63
2019-06-01T01:18:19.238Z,4.60
2019-06-01T01:20:48.506Z,6.00
2019-06-01T01:23:17.790Z,4.50
2019-06-01T01:25:48.122Z,5.10
2019-06-01T01:28:17.619Z,4.87
2019-06-01T01:31:05.142Z,5.07
2019-06-01T01:33:18.025Z,4.40
2019-06-01T01:35:47.609Z,4.60
2019-06-01T01:38:16.872Z,4.67
2019-06-01T01:40:46.151Z,4.60
2019-06-01T01:43:15.421Z,3.70
2019-06-01T01:45:44.699Z,3.40
2019-06-01T01:48:13.973Z,6.13
2019-06-01T01:50:43.252Z,3.63
2019-06-01T01:53:12.527Z,5.30
2019-06-01T01:55:41.799Z,5.27
2019-06-01T01:58:11.073Z,3.63
2019-06-01T02:00:46.431Z,3.80
2019-06-01T02:03:15.774Z,3.73
2019-06-01T02:05:45.117Z,3.50
2019-06-01T02:08:14.756Z,4.13
2019-06-01T02:10:44.030Z,4.03
2019-06-01T02:13:13.303Z,3.47
2019-06-01T02:15:43.149Z,3.47
2019-06-01T02:18:12.499Z,3.80
2019-06-01T02:20:41.831Z,3.97
2019-06-01T02:23:11.105Z,4.23
2019-06-01T02:25:40.398Z,3.90
2019-06-01T02:28:09.730Z,3.97
2019-06-01T02:30:39.014Z,4.30
2019-06-01T02:33:08.266Z,3.80
2019-06-01T02:35:37.533Z,4.63
2019-06-01T02:38:06.801Z,4.37
2019-06-01T02:40:39.160Z,5.30
2019-06-01T02:43:08.492Z,6.63
2019-06-01T02:45:37.770Z,4.23
2019-06-01T02:48:07.215Z,4.70
2019-06-01T02:50:36.591Z,4.70
2019-06-01T02:53:05.912Z,6.23
2019-06-01T02:55:35.189Z,5.00
2019-06-01T02:58:04.603Z,6.80
2019-06-01T03:00:50.867Z,6.00
2019-06-01T03:03:20.139Z,5.10
2019-06-01T03:05:50.558Z,5.33
2019-06-01T03:08:20.266Z,4.63
2019-06-01T03:10:50.872Z,5.50
2019-06-01T03:13:22.248Z,5.60
2019-06-01T03:15:54.952Z,4.93
2019-06-01T03:18:26.164Z,4.37
2019-06-01T03:20:57.535Z,4.50
2019-06-01T03:23:30.382Z,4.57
2019-06-01T03:26:02.264Z,5.73
2019-06-01T03:28:35.475Z,4.90
2019-06-01T03:31:07.751Z,6.27
2019-06-01T03:33:36.293Z,4.50
2019-06-01T03:36:06.836Z,8.03
2019-06-01T03:38:36.442Z,6.27
2019-06-01T03:41:06.148Z,5.33
2019-06-01T03:43:35.755Z,5.10
2019-06-01T03:46:06.570Z,4.83
2019-06-01T03:48:36.614Z,5.00
2019-06-01T03:51:06.219Z,5.37
2019-06-01T03:53:35.496Z,4.30
2019-06-01T03:56:05.000Z,6.20
2019-06-01T03:58:34.277Z,6.03
2019-06-01T04:01:05.111Z,5.23
2019-06-01T04:03:34.767Z,5.30
2019-06-01T04:06:05.213Z,5.17
2019-06-01T04:08:34.685Z,5.63
2019-06-01T04:11:03.972Z,5.67
2019-06-01T04:13:33.513Z,4.47
2019-06-01T04:16:03.716Z,4.77
2019-06-01T04:18:33.347Z,4.40
2019-06-01T04:21:04.166Z,5.37
2019-06-01T04:23:36.275Z,5.60
2019-06-01T04:26:04.568Z,4.60
2019-06-01T04:28:33.854Z,5.53
2019-06-01T04:31:04.306Z,6.00
2019-06-01T04:33:33.784Z,4.67
2019-06-01T04:36:03.061Z,5.33
2019-06-01T04:38:32.328Z,4.93
2019-06-01T04:41:01.600Z,4.97
2019-06-01T04:43:30.870Z,5.07
2019-06-01T04:46:00.146Z,5.50
2019-06-01T04:48:29.489Z,6.03
2019-06-01T04:50:58.767Z,5.63
2019-06-01T04:53:28.045Z,5.13
2019-06-01T04:55:57.323Z,6.37
2019-06-01T04:58:26.589Z,4.97
2019-06-01T05:00:55.860Z,6.07
2019-06-01T05:03:25.459Z,5.20
2019-06-01T05:05:54.736Z,5.30
2019-06-01T05:08:24.009Z,5.37
2019-06-01T05:10:53.274Z,5.10
2019-06-01T05:13:22.550Z,4.77
2019-06-01T05:15:51.826Z,4.90
2019-06-01T05:18:21.099Z,5.27
2019-06-01T05:20:50.381Z,4.40
2019-06-01T05:23:19.645Z,4.77
2019-06-01T05:25:48.919Z,4.80
2019-06-01T05:28:18.303Z,4.70
2019-06-01T05:30:47.538Z,4.93
2019-06-01T05:33:31.093Z,5.70
2019-06-01T05:35:47.819Z,4.13
2019-06-01T05:38:18.495Z,4.03
2019-06-01T05:40:47.943Z,4.40
2019-06-01T05:43:19.264Z,4.60
2019-06-01T05:45:48.217Z,4.77
2019-06-01T05:48:24.742Z,4.40
2019-06-01T05:50:48.806Z,4.70
2019-06-01T05:53:19.962Z,4.60
2019-06-01T05:55:49.325Z,4.50
2019-06-01T05:58:19.707Z,4.67
2019-06-01T06:00:49.390Z,4.20
2019-06-01T06:03:22.001Z,5.40
2019-06-01T06:05:49.652Z,4.67
2019-06-01T06:08:20.057Z,4.07
2019-06-01T06:10:49.789Z,4.17
2019-06-01T06:13:19.442Z,4.23
2019-06-01T06:15:48.685Z,5.37
2019-06-01T06:18:18.308Z,4.00
2019-06-01T06:20:47.918Z,3.63
2019-06-01T06:23:18.394Z,4.90
2019-06-01T06:25:47.840Z,4.80
2019-06-01T06:28:18.690Z,3.93
2019-06-01T06:30:48.084Z,3.90
2019-06-01T06:33:17.690Z,4.83
2019-06-01T06:35:47.301Z,3.73
2019-06-01T06:38:17.799Z,3.17
2019-06-01T06:40:47.465Z,3.90
2019-06-01T06:43:24.441Z,4.43
2019-06-01T06:45:47.701Z,3.90
2019-06-01T06:48:16.999Z,3.30
2019-06-01T06:50:46.247Z,3.60
2019-06-01T06:53:25.373Z,3.70
2019-06-01T06:55:46.529Z,2.83
2019-06-01T06:58:16.011Z,2.83
2019-06-01T07:00:45.633Z,3.37
2019-06-01T07:03:15.238Z,2.10
2019-06-01T07:05:44.527Z,3.47
2019-06-01T07:08:14.166Z,3.87
2019-06-01T07:10:43.439Z,3.10
2019-06-01T07:13:12.712Z,3.07
2019-06-01T07:15:42.258Z,3.20
2019-06-01T07:18:11.547Z,3.07
2019-06-01T07:20:40.831Z,3.63
2019-06-01T07:23:10.165Z,2.73
2019-06-01T07:25:39.680Z,2.93
2019-06-01T07:28:09.382Z,2.77
2019-06-01T07:30:49.837Z,4.60
2019-06-01T07:33:09.922Z,3.10
2019-06-01T07:35:39.197Z,3.00
2019-06-01T07:38:08.475Z,2.77
2019-06-01T07:40:37.783Z,2.50
2019-06-01T07:43:07.122Z,2.17
2019-06-01T07:45:36.393Z,2.30
2019-06-01T07:48:05.738Z,3.50
2019-06-01T07:50:35.015Z,1.77
2019-06-01T07:53:04.289Z,2.73
2019-06-01T07:55:33.800Z,2.40
2019-06-01T07:58:03.072Z,2.03
2019-06-01T08:00:33.238Z,2.33
2019-06-01T08:03:02.597Z,1.60
2019-06-01T08:05:32.201Z,1.50
2019-06-01T08:08:01.520Z,1.50
2019-06-01T08:10:31.639Z,2.03
2019-06-01T08:13:01.389Z,1.50
2019-06-01T08:15:31.875Z,1.67
2019-06-01T08:18:01.245Z,1.60
2019-06-01T08:20:30.522Z,2.40
2019-06-01T08:22:59.793Z,1.60
2019-06-01T08:25:29.092Z,1.80
2019-06-01T08:27:58.339Z,1.67
2019-06-01T08:30:28.663Z,1.87
2019-06-01T08:32:57.955Z,1.70
2019-06-01T08:35:27.224Z,1.70
2019-06-01T08:37:56.501Z,1.50
2019-06-01T08:40:27.322Z,1.70
2019-06-01T08:42:56.704Z,4.43
2019-06-01T08:45:25.992Z,1.77
2019-06-01T08:47:55.272Z,1.97
2019-06-01T08:50:25.642Z,1.80
2019-06-01T08:52:55.022Z,3.23
2019-06-01T08:55:25.795Z,1.50
2019-06-01T08:57:55.658Z,1.40
2019-06-01T09:00:26.369Z,1.60
2019-06-01T09:02:55.758Z,1.90
2019-06-01T09:05:26.829Z,1.50
2019-06-01T09:07:56.415Z,3.23
2019-06-01T09:10:27.428Z,1.40
2019-06-01T09:12:56.934Z,1.53
2019-06-01T09:15:27.585Z,1.80
2019-06-01T09:17:56.970Z,2.20
2019-06-01T09:20:27.312Z,1.77
2019-06-01T09:22:56.698Z,1.70
2019-06-01T09:25:25.960Z,1.80
2019-06-01T09:27:55.235Z,1.73
2019-06-01T09:30:25.799Z,2.67
2019-06-01T09:32:55.265Z,1.63
2019-06-01T09:35:40.780Z,1.70
2019-06-01T09:37:55.537Z,1.60
2019-06-01T09:40:24.826Z,1.20
2019-06-01T09:42:54.092Z,1.47
2019-06-01T09:45:23.357Z,1.50
2019-06-01T09:47:52.633Z,1.30
2019-06-01T09:50:21.914Z,1.50
2019-06-01T09:52:51.432Z,1.60
2019-06-01T09:55:20.765Z,1.50
2019-06-01T09:57:50.353Z,2.40
2019-06-01T10:00:20.428Z,1.53
2019-06-01T10:02:49.956Z,1.80
2019-06-01T10:05:19.300Z,1.20
2019-06-01T10:07:48.872Z,1.30
2019-06-01T10:10:18.893Z,1.43
2019-06-01T10:12:48.501Z,1.40
2019-06-01T10:15:17.853Z,1.20
2019-06-01T10:17:47.407Z,1.20
2019-06-01T10:20:17.012Z,1.33
2019-06-01T10:22:46.296Z,1.10
2019-06-01T10:25:15.924Z,1.20
2019-06-01T10:27:45.198Z,1.03
2019-06-01T10:30:15.273Z,1.00
2019-06-01T10:32:44.488Z,1.47
2019-06-01T10:35:14.256Z,1.17
2019-06-01T10:37:43.530Z,1.10
2019-06-01T10:40:13.034Z,1.17
2019-06-01T10:42:42.318Z,1.40
2019-06-01T10:45:12.475Z,1.20
2019-06-01T10:47:42.314Z,2.73
2019-06-01T10:50:11.981Z,1.27
2019-06-01T10:52:42.624Z,1.10
2019-06-01T10:55:13.436Z,1.00
2019-06-01T10:57:42.864Z,1.07
2019-06-01T11:00:13.296Z,1.30
2019-06-01T11:02:43.284Z,1.20
2019-06-01T11:05:12.935Z,1.43
2019-06-01T11:07:43.118Z,1.10
2019-06-01T11:10:13.309Z,1.10
2019-06-01T11:12:43.307Z,1.20
2019-06-01T11:15:14.556Z,1.30
2019-06-01T11:17:43.831Z,1.00
2019-06-01T11:20:15.141Z,1.40
2019-06-01T11:22:45.304Z,1.23
2019-06-01T11:25:14.644Z,1.27
2019-06-01T11:27:44.110Z,2.70
2019-06-01T11:30:16.745Z,1.80
2019-06-01T11:32:46.022Z,1.20
2019-06-01T11:35:15.730Z,1.30
2019-06-01T11:37:45.004Z,1.40
2019-06-01T11:40:14.540Z,1.00
2019-06-01T11:42:45.136Z,1.73
2019-06-01T11:45:15.122Z,1.10
2019-06-01T11:47:45.109Z,1.07
2019-06-01T11:50:15.153Z,1.27
2019-06-01T11:52:45.483Z,0.97
2019-06-01T11:55:15.023Z,1.00
2019-06-01T11:57:44.305Z,0.90
2019-06-01T12:00:15.381Z,1.00
2019-06-01T12:02:45.832Z,1.00
2019-06-01T12:05:15.746Z,1.00
2019-06-01T12:07:46.070Z,1.00
2019-06-01T12:10:15.541Z,0.90
2019-06-01T12:12:44.812Z,1.00
2019-06-01T12:15:15.122Z,0.87
2019-06-01T12:17:44.899Z,1.10
2019-06-01T12:20:15.031Z,1.07
2019-06-01T12:22:45.122Z,0.90
2019-06-01T12:25:14.707Z,0.90
2019-06-01T12:27:43.984Z,1.33
2019-06-01T12:30:13.599Z,1.10
2019-06-01T12:32:44.095Z,1.90
2019-06-01T12:35:13.680Z,1.10
2019-06-01T12:38:00.775Z,1.00
2019-06-01T12:40:14.307Z,1.23
2019-06-01T12:42:44.154Z,1.23
2019-06-01T12:45:22.678Z,1.10
2019-06-01T12:47:55.194Z,1.10
2019-06-01T12:50:20.989Z,0.90
2019-06-01T12:52:50.215Z,1.00
2019-06-01T12:55:19.498Z,0.90
2019-06-01T12:57:49.313Z,0.90
2019-06-01T13:00:19.201Z,1.00
2019-06-01T13:02:59.505Z,1.00
2019-06-01T13:05:20.038Z,0.90
2019-06-01T13:07:58.309Z,1.10
2019-06-01T13:10:20.584Z,1.03
2019-06-01T13:12:49.837Z,1.37
2019-06-01T13:15:19.170Z,1.00
2019-06-01T13:17:49.447Z,1.20
2019-06-01T13:20:18.866Z,1.00
2019-06-01T13:22:48.145Z,1.27
2019-06-01T13:25:17.491Z,1.07
2019-06-01T13:27:48.694Z,1.40
2019-06-01T13:30:18.133Z,1.00
2019-06-01T13:32:48.571Z,0.90
2019-06-01T13:35:18.137Z,2.00
2019-06-01T13:37:48.672Z,1.23
2019-06-01T13:40:18.313Z,0.90
2019-06-01T13:42:47.565Z,1.23
2019-06-01T13:45:16.910Z,1.00
2019-06-01T13:47:46.191Z,1.00
2019-06-01T13:50:15.973Z,0.87
2019-06-01T13:52:45.872Z,0.90
2019-06-01T13:55:15.617Z,0.90
2019-06-01T13:57:46.325Z,0.83
2019-06-01T14:00:29.407Z,1.10
2019-06-01T14:02:50.846Z,2.00
2019-06-01T14:05:18.707Z,1.00
2019-06-01T14:07:47.980Z,0.83
2019-06-01T14:10:17.989Z,1.10
2019-06-01T14:12:47.475Z,1.00
2019-06-01T14:15:17.324Z,0.90
2019-06-01T14:17:47.870Z,1.17
2019-06-01T14:20:17.256Z,0.97
2019-06-01T14:22:47.622Z,1.70
2019-06-01T14:25:17.252Z,0.80
2019-06-01T14:27:48.034Z,1.80
2019-06-01T14:30:17.939Z,0.90
2019-06-01T14:32:48.812Z,0.90
2019-06-01T14:35:18.252Z,1.23
2019-06-01T14:37:48.709Z,0.90
2019-06-01T14:40:18.048Z,1.10
2019-06-01T14:42:47.330Z,1.50
2019-06-01T14:45:16.727Z,0.90
2019-06-01T14:47:47.179Z,1.10
2019-06-01T14:50:16.951Z,1.03
2019-06-01T14:52:47.517Z,1.00
2019-06-01T14:55:17.108Z,0.90
2019-06-01T14:57:48.372Z,0.93
2019-06-01T15:00:18.055Z,0.80
2019-06-01T15:02:48.266Z,0.93
2019-06-01T15:05:17.867Z,1.00
2019-06-01T15:07:48.170Z,0.90
2019-06-01T15:10:18.319Z,0.83
2019-06-01T15:12:52.718Z,1.67
2019-06-01T15:15:19.739Z,0.80
2019-06-01T15:17:49.292Z,0.70
2019-06-01T15:20:18.798Z,0.90
2019-06-01T15:22:48.067Z,0.90
2019-06-01T15:25:17.873Z,1.30
2019-06-01T15:27:47.150Z,1.43
2019-06-01T15:30:16.553Z,1.00
2019-06-01T15:32:45.841Z,0.90
2019-06-01T15:35:16.581Z,0.90
2019-06-01T15:37:45.887Z,2.20
2019-06-01T15:40:16.868Z,1.00
2019-06-01T15:42:46.416Z,0.80
2019-06-01T15:45:16.192Z,2.00
2019-06-01T15:47:45.472Z,0.90
2019-06-01T15:50:16.688Z,0.90
2019-06-01T15:52:45.960Z,1.00
2019-06-01T15:55:15.575Z,0.98
2019-06-01T15:57:44.849Z,1.12
2019-06-01T16:00:14.901Z,0.85
2019-06-01T16:02:44.244Z,1.10
2019-06-01T16:05:13.960Z,1.57
2019-06-01T16:07:43.238Z,1.05
2019-06-01T16:10:12.823Z,0.90
2019-06-01T16:12:42.098Z,1.17
2019-06-01T16:15:11.887Z,1.12
2019-06-01T16:17:41.416Z,1.20
2019-06-01T16:20:12.194Z,1.30
2019-06-01T16:22:41.517Z,1.20
2019-06-01T16:25:11.570Z,1.35
2019-06-01T16:27:40.849Z,1.30
2019-06-01T16:30:12.873Z,1.45
2019-06-01T16:32:42.154Z,1.50
2019-06-01T16:35:12.002Z,1.85
2019-06-01T16:37:41.274Z,1.40
2019-06-01T16:40:11.729Z,1.20
2019-06-01T16:42:41.287Z,1.40
2019-06-01T16:45:11.200Z,1.25
2019-06-01T16:47:40.481Z,1.10
2019-06-01T16:50:11.076Z,1.10
2019-06-01T16:52:40.349Z,1.10
2019-06-01T16:55:11.264Z,1.30
2019-06-01T16:57:40.783Z,1.02
2019-06-01T17:00:15.807Z,0.95
2019-06-01T17:02:45.085Z,1.10
2019-06-01T17:05:15.244Z,1.10
2019-06-01T17:07:44.518Z,1.10
2019-06-01T17:10:25.756Z,1.00
2019-06-01T17:12:46.205Z,1.10
2019-06-01T17:15:16.841Z,1.03
2019-06-01T17:17:46.112Z,1.10
2019-06-01T17:20:38.795Z,1.03
2019-06-01T17:23:24.384Z,1.50
2019-06-01T17:25:39.506Z,1.20
2019-06-01T17:28:09.257Z,1.27
2019-06-01T17:30:38.837Z,0.97
2019-06-01T17:33:09.475Z,1.10
2019-06-01T17:35:38.753Z,1.20
2019-06-01T17:38:09.220Z,1.30
2019-06-01T17:43:41.510Z,1.00
2019-06-01T17:46:11.963Z,1.10
2019-06-01T17:48:41.680Z,1.10
2019-06-01T17:51:10.941Z,2.23
2019-06-01T17:53:40.220Z,1.43
2019-06-01T17:56:10.191Z,1.10
2019-06-01T17:58:39.798Z,1.23
2019-06-01T18:01:09.912Z,1.20
2019-06-01T18:03:39.330Z,1.43
2019-06-01T18:06:09.904Z,1.40
2019-06-01T18:08:39.260Z,1.20
2019-06-01T18:11:10.050Z,1.40
2019-06-01T18:13:39.626Z,1.63
2019-06-01T18:16:10.296Z,1.90
2019-06-01T18:18:39.621Z,1.67
2019-06-01T18:21:10.305Z,1.67
2019-06-01T18:23:39.653Z,1.67
2019-06-01T18:26:09.234Z,1.67
2019-06-01T18:28:38.521Z,1.70
2019-06-01T18:31:08.731Z,1.50
2019-06-01T18:33:38.509Z,2.50
2019-06-01T18:36:07.777Z,1.93
2019-06-01T18:38:37.042Z,4.50
2019-06-01T18:41:10.715Z,2.30
2019-06-01T18:43:37.316Z,1.90
2019-06-01T18:46:07.983Z,2.40
2019-06-01T18:48:37.542Z,2.00
2019-06-01T18:51:08.087Z,2.90
2019-06-01T18:53:37.458Z,2.40
2019-06-01T18:56:08.046Z,2.80
2019-06-01T18:58:37.448Z,2.57
2019-06-01T19:01:06.831Z,3.20
2019-06-01T19:03:36.426Z,2.83
2019-06-01T19:06:07.217Z,2.30
2019-06-01T19:08:36.871Z,2.47
2019-06-01T19:11:06.579Z,2.90
2019-06-01T19:13:35.875Z,4.00
2019-06-01T19:16:05.836Z,3.43
2019-06-01T19:18:35.261Z,3.10
2019-06-01T19:21:04.545Z,3.00
2019-06-01T19:23:33.817Z,3.70
2019-06-01T19:26:10.033Z,3.07
2019-06-01T19:28:36.873Z,2.47
2019-06-01T19:31:06.812Z,4.43
2019-06-01T19:33:36.208Z,5.17
2019-06-01T19:36:06.900Z,4.33
2019-06-01T19:38:37.409Z,4.10
2019-06-01T19:41:07.407Z,4.07
2019-06-01T19:43:36.788Z,5.40
2019-06-01T19:46:06.067Z,4.40
2019-06-01T19:48:35.335Z,4.63
2019-06-01T19:51:04.773Z,4.43
2019-06-01T19:53:34.048Z,5.97
2019-06-01T19:56:03.331Z,5.70
2019-06-01T19:58:32.612Z,5.30
2019-06-01T20:01:01.886Z,5.43
2019-06-01T20:03:31.161Z,5.43
2019-06-01T20:06:00.453Z,5.50
2019-06-01T20:08:29.718Z,5.60
2019-06-01T20:10:58.995Z,5.27
2019-06-01T20:13:28.271Z,5.00
2019-06-01T20:15:57.542Z,4.70
2019-06-01T20:18:26.828Z,4.90
2019-06-01T20:20:56.104Z,4.87
2019-06-01T20:23:25.398Z,5.43
2019-06-01T20:25:54.679Z,4.07
2019-06-01T20:28:23.955Z,5.00
2019-06-01T20:30:53.275Z,5.57
2019-06-01T20:33:22.732Z,5.17
2019-06-01T20:35:52.058Z,6.20
2019-06-01T20:38:23.343Z,5.40
2019-06-01T20:40:52.675Z,5.57
2019-06-01T20:43:22.927Z,5.80
2019-06-01T20:45:52.299Z,5.77
2019-06-01T20:48:22.805Z,8.30
2019-06-01T20:50:52.235Z,5.63
2019-06-01T20:53:23.143Z,4.80
2019-06-01T20:55:52.865Z,4.77
2019-06-01T20:58:23.793Z,4.63
2019-06-01T21:00:53.472Z,6.20
2019-06-01T21:03:24.206Z,4.90
2019-06-01T21:05:53.571Z,4.80
2019-06-01T21:08:24.031Z,5.17
2019-06-01T21:10:53.796Z,5.40
2019-06-01T21:13:24.151Z,5.40
2019-06-01T21:15:53.826Z,5.87
2019-06-01T21:18:23.437Z,5.50
2019-06-01T21:20:52.711Z,5.27
2019-06-01T21:23:23.037Z,5.77
2019-06-01T21:25:52.385Z,5.97
2019-06-01T21:28:22.470Z,6.50
2019-06-01T21:30:52.644Z,5.73
2019-06-01T21:33:25.376Z,5.17
2019-06-01T21:35:52.918Z,6.13
2019-06-01T21:38:23.563Z,6.33
2019-06-01T21:40:52.949Z,6.10
2019-06-01T21:43:31.967Z,8.67
2019-06-01T21:45:53.219Z,6.30
2019-06-01T21:48:23.972Z,6.10
2019-06-01T21:50:53.672Z,5.13
2019-06-01T21:53:24.423Z,5.80
2019-06-01T21:55:53.818Z,7.47
2019-06-01T21:58:23.159Z,5.30
2019-06-01T22:00:52.806Z,4.77
2019-06-01T22:03:23.198Z,4.57
2019-06-01T22:05:52.565Z,5.07
2019-06-01T22:08:23.158Z,4.87
2019-06-01T22:10:52.477Z,6.07
2019-06-01T22:13:24.120Z,5.90
2019-06-01T22:15:52.763Z,6.10
2019-06-01T22:18:22.023Z,6.27
2019-06-01T22:20:51.292Z,6.07
2019-06-01T22:23:21.807Z,6.10
2019-06-01T22:25:51.212Z,6.83
2019-06-01T22:28:20.505Z,5.73
2019-06-01T22:30:49.833Z,6.60
2019-06-01T22:33:20.152Z,6.23
2019-06-01T22:35:50.488Z,8.33
2019-06-01T22:38:19.757Z,6.40
2019-06-01T22:40:49.299Z,6.87
2019-06-01T22:43:35.108Z,7.70
2019-06-01T22:45:49.632Z,9.27
2019-06-01T22:48:20.453Z,8.63
2019-06-01T22:50:49.765Z,8.47
2019-06-01T22:53:19.888Z,9.00
2019-06-01T22:55:49.289Z,9.37
2019-06-01T22:58:18.552Z,9.97
2019-06-01T23:00:48.096Z,10.00
2019-06-01T23:03:17.714Z,9.90
2019-06-01T23:05:47.331Z,9.03
2019-06-01T23:08:17.054Z,9.60
2019-06-01T23:10:46.308Z,9.10
2019-06-01T23:13:15.582Z,9.57
2019-06-01T23:15:44.867Z,8.87
2019-06-01T23:18:14.223Z,8.30
2019-06-01T23:20:43.508Z,9.70
2019-06-01T23:23:12.772Z,9.53
2019-06-01T23:25:42.046Z,9.67
2019-06-01T23:28:11.379Z,9.60
2019-06-01T23:30:40.684Z,11.10
2019-06-01T23:33:09.998Z,11.23
2019-06-01T23:35:39.289Z,10.43
2019-06-01T23:38:08.564Z,10.93
2019-06-01T23:40:37.837Z,10.50
2019-06-01T23:43:07.158Z,10.50
2019-06-01T23:45:36.417Z,10.63
2019-06-01T23:48:05.760Z,10.20
2019-06-01T23:50:35.039Z,8.63
2019-06-01T23:53:13.297Z,9.70
2019-06-01T23:55:35.384Z,10.17
2019-06-01T23:58:04.929Z,11.37
